sensor_id;sensor_type;location;lat;lon;timestamp;P1;durP1;ratioP1;P2;durP2;ratioP2
81330;SDS011;70793;53.076;8.822;2023-10-31T00:01:50;1.20;;;0.98;;
81330;SDS011;70793;53.076;8.822;2023-10-31T00:04:15;1.40;;;1.30;;
81330;SDS011;70793;53.076;8.822;2023-10-31T00:06:41;1.20;;;1.10;;
81330;SDS011;70793;53.076;8.822;2023-10-31T00:09:06;1.27;;;0.70;;
81330;SDS011;70793;53.076;8.822;2023-10-31T00:11:32;1.00;;;0.90;;
81330;SDS011;70793;53.076;8.822;2023-10-31T00:13:57;1.60;;;1.25;;
81330;SDS011;70793;53.076;8.822;2023-10-31T00:16:23;1.35;;;1.25;;
81330;SDS011;70793;53.076;8.822;2023-10-31T00:18:48;1.55;;;1.08;;
81330;SDS011;70793;53.076;8.822;2023-10-31T00:21:14;1.08;;;0.82;;
81330;SDS011;70793;53.076;8.822;2023-10-31T00:23:43;1.23;;;1.13;;
81330;SDS011;70793;53.076;8.822;2023-10-31T00:26:11;1.80;;;1.30;;
81330;SDS011;70793;53.076;8.822;2023-10-31T00:28:37;1.55;;;1.30;;
81330;SDS011;70793;53.076;8.822;2023-10-31T00:31:02;1.38;;;1.20;;
81330;SDS011;70793;53.076;8.822;2023-10-31T00:33:29;1.70;;;1.42;;
81330;SDS011;70793;53.076;8.822;2023-10-31T00:35:54;1.00;;;0.90;;
81330;SDS011;70793;53.076;8.822;2023-10-31T00:38:20;1.40;;;1.30;;
81330;SDS011;70793;53.076;8.822;2023-10-31T00:40:45;1.38;;;1.23;;
81330;SDS011;70793;53.076;8.822;2023-10-31T00:43:10;1.35;;;1.00;;
81330;SDS011;70793;53.076;8.822;2023-10-31T00:45:36;1.30;;;1.20;;
81330;SDS011;70793;53.076;8.822;2023-10-31T00:48:01;1.85;;;1.05;;
81330;SDS011;70793;53.076;8.822;2023-10-31T00:50:27;1.33;;;1.20;;
81330;SDS011;70793;53.076;8.822;2023-10-31T00:52:53;3.03;;;2.10;;
81330;SDS011;70793;53.076;8.822;2023-10-31T00:55:18;1.90;;;1.43;;
81330;SDS011;70793;53.076;8.822;2023-10-31T00:57:43;1.33;;;1.10;;
81330;SDS011;70793;53.076;8.822;2023-10-31T01:00:09;2.00;;;1.50;;
81330;SDS011;70793;53.076;8.822;2023-10-31T01:02:35;1.63;;;1.48;;
81330;SDS011;70793;53.076;8.822;2023-10-31T01:05:00;1.30;;;1.20;;
81330;SDS011;70793;53.076;8.822;2023-10-31T01:07:26;1.73;;;1.55;;
81330;SDS011;70793;53.076;8.822;2023-10-31T01:09:51;1.42;;;1.23;;
81330;SDS011;70793;53.076;8.822;2023-10-31T01:12:16;1.57;;;0.83;;
81330;SDS011;70793;53.076;8.822;2023-10-31T01:14:42;1.73;;;1.13;;
81330;SDS011;70793;53.076;8.822;2023-10-31T01:17:07;1.55;;;1.35;;
81330;SDS011;70793;53.076;8.822;2023-10-31T01:19:32;1.33;;;0.93;;
81330;SDS011;70793;53.076;8.822;2023-10-31T01:21:58;1.20;;;1.10;;
81330;SDS011;70793;53.076;8.822;2023-10-31T01:24:23;1.85;;;1.42;;
81330;SDS011;70793;53.076;8.822;2023-10-31T01:26:49;1.30;;;1.15;;
81330;SDS011;70793;53.076;8.822;2023-10-31T01:29:14;1.10;;;1.00;;
81330;SDS011;70793;53.076;8.822;2023-10-31T01:31:43;0.68;;;0.68;;
81330;SDS011;70793;53.076;8.822;2023-10-31T01:34:08;1.10;;;1.00;;
81330;SDS011;70793;53.076;8.822;2023-10-31T01:36:34;1.20;;;1.08;;
81330;SDS011;70793;53.076;8.822;2023-10-31T01:38:59;1.15;;;1.05;;
81330;SDS011;70793;53.076;8.822;2023-10-31T01:41:25;1.15;;;0.90;;
81330;SDS011;70793;53.076;8.822;2023-10-31T01:43:50;1.02;;;0.93;;
81330;SDS011;70793;53.076;8.822;2023-10-31T01:46:15;1.75;;;1.15;;
81330;SDS011;70793;53.076;8.822;2023-10-31T01:48:41;1.00;;;0.90;;
81330;SDS011;70793;53.076;8.822;2023-10-31T01:51:07;1.60;;;1.20;;
81330;SDS011;70793;53.076;8.822;2023-10-31T01:53:32;1.30;;;0.90;;
81330;SDS011;70793;53.076;8.822;2023-10-31T01:55:59;1.08;;;1.00;;
81330;SDS011;70793;53.076;8.822;2023-10-31T01:58:28;1.08;;;0.95;;
81330;SDS011;70793;53.076;8.822;2023-10-31T02:01:04;1.52;;;1.05;;
81330;SDS011;70793;53.076;8.822;2023-10-31T02:03:31;1.20;;;0.80;;
81330;SDS011;70793;53.076;8.822;2023-10-31T02:05:58;1.40;;;1.25;;
81330;SDS011;70793;53.076;8.822;2023-10-31T02:08:24;1.40;;;1.30;;
81330;SDS011;70793;53.076;8.822;2023-10-31T02:10:50;1.40;;;1.30;;
81330;SDS011;70793;53.076;8.822;2023-10-31T02:13:16;1.38;;;1.02;;
81330;SDS011;70793;53.076;8.822;2023-10-31T02:15:43;1.30;;;1.20;;
81330;SDS011;70793;53.076;8.822;2023-10-31T02:18:08;1.02;;;0.93;;
81330;SDS011;70793;53.076;8.822;2023-10-31T02:20:34;1.13;;;1.02;;
81330;SDS011;70793;53.076;8.822;2023-10-31T02:23:01;1.15;;;1.05;;
81330;SDS011;70793;53.076;8.822;2023-10-31T02:25:27;0.85;;;0.82;;
81330;SDS011;70793;53.076;8.822;2023-10-31T02:27:52;1.15;;;1.05;;
81330;SDS011;70793;53.076;8.822;2023-10-31T02:30:18;1.40;;;1.08;;
81330;SDS011;70793;53.076;8.822;2023-10-31T02:32:43;1.30;;;1.20;;
81330;SDS011;70793;53.076;8.822;2023-10-31T02:35:09;1.13;;;1.02;;
81330;SDS011;70793;53.076;8.822;2023-10-31T02:37:34;1.00;;;0.88;;
81330;SDS011;70793;53.076;8.822;2023-10-31T02:40:00;1.60;;;1.50;;
81330;SDS011;70793;53.076;8.822;2023-10-31T02:42:25;2.33;;;1.38;;
81330;SDS011;70793;53.076;8.822;2023-10-31T02:44:51;2.28;;;1.08;;
81330;SDS011;70793;53.076;8.822;2023-10-31T02:47:17;2.00;;;1.30;;
81330;SDS011;70793;53.076;8.822;2023-10-31T02:49:42;1.42;;;1.30;;
81330;SDS011;70793;53.076;8.822;2023-10-31T02:52:08;1.42;;;1.20;;
81330;SDS011;70793;53.076;8.822;2023-10-31T02:54:33;1.48;;;1.38;;
81330;SDS011;70793;53.076;8.822;2023-10-31T02:56:59;1.60;;;1.33;;
81330;SDS011;70793;53.076;8.822;2023-10-31T02:59:24;1.13;;;1.03;;
81330;SDS011;70793;53.076;8.822;2023-10-31T03:01:49;1.23;;;1.13;;
81330;SDS011;70793;53.076;8.822;2023-10-31T03:04:15;1.27;;;1.13;;
81330;SDS011;70793;53.076;8.822;2023-10-31T03:06:41;1.23;;;1.13;;
81330;SDS011;70793;53.076;8.822;2023-10-31T03:09:06;1.45;;;1.23;;
81330;SDS011;70793;53.076;8.822;2023-10-31T03:11:32;1.73;;;1.33;;
81330;SDS011;70793;53.076;8.822;2023-10-31T03:13:58;1.52;;;1.23;;
81330;SDS011;70793;53.076;8.822;2023-10-31T03:16:23;1.50;;;1.10;;
81330;SDS011;70793;53.076;8.822;2023-10-31T03:18:49;1.45;;;1.05;;
81330;SDS011;70793;53.076;8.822;2023-10-31T03:21:15;2.50;;;1.55;;
81330;SDS011;70793;53.076;8.822;2023-10-31T03:23:46;1.45;;;1.27;;
81330;SDS011;70793;53.076;8.822;2023-10-31T03:26:13;1.70;;;1.42;;
81330;SDS011;70793;53.076;8.822;2023-10-31T03:28:39;2.10;;;1.75;;
81330;SDS011;70793;53.076;8.822;2023-10-31T03:31:05;2.00;;;1.52;;
81330;SDS011;70793;53.076;8.822;2023-10-31T03:33:30;1.65;;;1.50;;
81330;SDS011;70793;53.076;8.822;2023-10-31T03:35:56;2.22;;;1.48;;
81330;SDS011;70793;53.076;8.822;2023-10-31T03:38:21;1.50;;;1.40;;
81330;SDS011;70793;53.076;8.822;2023-10-31T03:40:46;2.17;;;1.58;;
81330;SDS011;70793;53.076;8.822;2023-10-31T03:43:12;1.63;;;1.33;;
81330;SDS011;70793;53.076;8.822;2023-10-31T03:45:37;2.13;;;1.92;;
81330;SDS011;70793;53.076;8.822;2023-10-31T03:48:03;1.53;;;1.30;;
81330;SDS011;70793;53.076;8.822;2023-10-31T03:50:29;1.77;;;1.50;;
81330;SDS011;70793;53.076;8.822;2023-10-31T03:52:54;1.33;;;1.20;;
81330;SDS011;70793;53.076;8.822;2023-10-31T03:55:19;1.40;;;1.30;;
81330;SDS011;70793;53.076;8.822;2023-10-31T03:57:45;1.65;;;1.50;;
81330;SDS011;70793;53.076;8.822;2023-10-31T04:00:10;1.47;;;1.33;;
81330;SDS011;70793;53.076;8.822;2023-10-31T04:02:36;2.55;;;1.80;;
81330;SDS011;70793;53.076;8.822;2023-10-31T04:05:02;1.80;;;1.17;;
81330;SDS011;70793;53.076;8.822;2023-10-31T04:07:28;1.60;;;1.50;;
81330;SDS011;70793;53.076;8.822;2023-10-31T04:09:53;1.48;;;1.38;;
81330;SDS011;70793;53.076;8.822;2023-10-31T04:12:19;1.50;;;1.20;;
81330;SDS011;70793;53.076;8.822;2023-10-31T04:14:45;1.73;;;1.33;;
81330;SDS011;70793;53.076;8.822;2023-10-31T04:17:10;1.70;;;1.52;;
81330;SDS011;70793;53.076;8.822;2023-10-31T04:19:36;1.63;;;1.20;;
81330;SDS011;70793;53.076;8.822;2023-10-31T04:22:02;1.90;;;1.50;;
81330;SDS011;70793;53.076;8.822;2023-10-31T04:24:27;1.60;;;1.50;;
81330;SDS011;70793;53.076;8.822;2023-10-31T04:26:52;1.80;;;1.40;;
81330;SDS011;70793;53.076;8.822;2023-10-31T04:29:18;1.70;;;1.23;;
81330;SDS011;70793;53.076;8.822;2023-10-31T04:31:43;1.67;;;1.43;;
81330;SDS011;70793;53.076;8.822;2023-10-31T04:34:08;1.90;;;1.43;;
81330;SDS011;70793;53.076;8.822;2023-10-31T04:36:34;1.67;;;1.38;;
81330;SDS011;70793;53.076;8.822;2023-10-31T04:38:59;1.40;;;1.00;;
81330;SDS011;70793;53.076;8.822;2023-10-31T04:41:24;1.60;;;1.50;;
81330;SDS011;70793;53.076;8.822;2023-10-31T04:43:50;1.70;;;1.40;;
81330;SDS011;70793;53.076;8.822;2023-10-31T04:46:15;1.30;;;1.20;;
81330;SDS011;70793;53.076;8.822;2023-10-31T04:48:41;1.55;;;1.40;;
81330;SDS011;70793;53.076;8.822;2023-10-31T04:51:07;1.45;;;1.25;;
81330;SDS011;70793;53.076;8.822;2023-10-31T04:53:32;2.03;;;1.80;;
81330;SDS011;70793;53.076;8.822;2023-10-31T04:55:59;2.22;;;1.55;;
81330;SDS011;70793;53.076;8.822;2023-10-31T04:58:24;1.38;;;1.23;;
81330;SDS011;70793;53.076;8.822;2023-10-31T05:00:50;2.83;;;2.30;;
81330;SDS011;70793;53.076;8.822;2023-10-31T05:03:15;1.80;;;1.40;;
81330;SDS011;70793;53.076;8.822;2023-10-31T05:05:41;2.75;;;1.95;;
81330;SDS011;70793;53.076;8.822;2023-10-31T05:08:06;2.10;;;1.88;;
81330;SDS011;70793;53.076;8.822;2023-10-31T05:10:32;1.33;;;1.20;;
81330;SDS011;70793;53.076;8.822;2023-10-31T05:12:57;1.60;;;1.50;;
81330;SDS011;70793;53.076;8.822;2023-10-31T05:15:23;2.25;;;2.05;;
81330;SDS011;70793;53.076;8.822;2023-10-31T05:17:49;2.33;;;2.07;;
81330;SDS011;70793;53.076;8.822;2023-10-31T05:20:14;1.77;;;1.58;;
81330;SDS011;70793;53.076;8.822;2023-10-31T05:22:40;1.65;;;1.42;;
81330;SDS011;70793;53.076;8.822;2023-10-31T05:25:06;1.90;;;1.70;;
81330;SDS011;70793;53.076;8.822;2023-10-31T05:27:32;2.05;;;1.80;;
81330;SDS011;70793;53.076;8.822;2023-10-31T05:29:57;2.15;;;1.70;;
81330;SDS011;70793;53.076;8.822;2023-10-31T05:32:22;1.80;;;1.70;;
81330;SDS011;70793;53.076;8.822;2023-10-31T05:34:48;2.00;;;1.50;;
81330;SDS011;70793;53.076;8.822;2023-10-31T05:37:13;2.30;;;1.90;;
81330;SDS011;70793;53.076;8.822;2023-10-31T05:39:38;2.43;;;2.03;;
81330;SDS011;70793;53.076;8.822;2023-10-31T05:42:04;1.55;;;1.25;;
81330;SDS011;70793;53.076;8.822;2023-10-31T05:44:29;2.10;;;1.90;;
81330;SDS011;70793;53.076;8.822;2023-10-31T05:46:55;1.70;;;1.40;;
81330;SDS011;70793;53.076;8.822;2023-10-31T05:49:20;2.17;;;1.70;;
81330;SDS011;70793;53.076;8.822;2023-10-31T05:51:52;1.63;;;1.53;;
81330;SDS011;70793;53.076;8.822;2023-10-31T05:54:17;0.88;;;0.63;;
81330;SDS011;70793;53.076;8.822;2023-10-31T05:56:43;0.82;;;0.82;;
81330;SDS011;70793;53.076;8.822;2023-10-31T05:59:09;0.70;;;0.60;;
81330;SDS011;70793;53.076;8.822;2023-10-31T06:01:35;0.32;;;0.30;;
81330;SDS011;70793;53.076;8.822;2023-10-31T06:04:01;0.40;;;0.40;;
81330;SDS011;70793;53.076;8.822;2023-10-31T06:06:26;0.57;;;0.57;;
81330;SDS011;70793;53.076;8.822;2023-10-31T06:08:52;0.40;;;0.40;;
81330;SDS011;70793;53.076;8.822;2023-10-31T06:11:17;0.30;;;0.30;;
81330;SDS011;70793;53.076;8.822;2023-10-31T06:13:42;0.40;;;0.40;;
81330;SDS011;70793;53.076;8.822;2023-10-31T06:16:08;0.30;;;0.30;;
81330;SDS011;70793;53.076;8.822;2023-10-31T06:18:33;0.22;;;0.20;;
81330;SDS011;70793;53.076;8.822;2023-10-31T06:21:02;0.40;;;0.40;;
81330;SDS011;70793;53.076;8.822;2023-10-31T06:23:28;0.30;;;0.30;;
81330;SDS011;70793;53.076;8.822;2023-10-31T06:25:53;0.20;;;0.20;;
81330;SDS011;70793;53.076;8.822;2023-10-31T06:28:18;0.47;;;0.47;;
81330;SDS011;70793;53.076;8.822;2023-10-31T06:30:44;0.40;;;0.37;;
81330;SDS011;70793;53.076;8.822;2023-10-31T06:33:09;0.70;;;0.70;;
81330;SDS011;70793;53.076;8.822;2023-10-31T06:35:35;0.30;;;0.30;;
81330;SDS011;70793;53.076;8.822;2023-10-31T06:38:01;0.30;;;0.30;;
81330;SDS011;70793;53.076;8.822;2023-10-31T06:40:27;0.32;;;0.32;;
81330;SDS011;70793;53.076;8.822;2023-10-31T06:42:52;0.20;;;0.20;;
81330;SDS011;70793;53.076;8.822;2023-10-31T06:45:18;0.47;;;0.47;;
81330;SDS011;70793;53.076;8.822;2023-10-31T06:47:43;0.40;;;0.40;;
81330;SDS011;70793;53.076;8.822;2023-10-31T06:50:09;0.30;;;0.30;;
81330;SDS011;70793;53.076;8.822;2023-10-31T06:52:34;0.73;;;0.30;;
81330;SDS011;70793;53.076;8.822;2023-10-31T06:55:00;0.43;;;0.43;;
81330;SDS011;70793;53.076;8.822;2023-10-31T06:57:25;1.10;;;0.70;;
81330;SDS011;70793;53.076;8.822;2023-10-31T06:59:51;0.68;;;0.57;;
81330;SDS011;70793;53.076;8.822;2023-10-31T07:02:16;0.52;;;0.52;;
81330;SDS011;70793;53.076;8.822;2023-10-31T07:04:42;0.40;;;0.40;;
81330;SDS011;70793;53.076;8.822;2023-10-31T07:07:07;0.40;;;0.40;;
81330;SDS011;70793;53.076;8.822;2023-10-31T07:09:32;1.90;;;0.55;;
81330;SDS011;70793;53.076;8.822;2023-10-31T07:11:58;0.40;;;0.40;;
81330;SDS011;70793;53.076;8.822;2023-10-31T07:14:23;0.83;;;0.57;;
81330;SDS011;70793;53.076;8.822;2023-10-31T07:16:49;0.40;;;0.40;;
81330;SDS011;70793;53.076;8.822;2023-10-31T07:19:14;0.50;;;0.47;;
81330;SDS011;70793;53.076;8.822;2023-10-31T07:21:40;0.32;;;0.32;;
81330;SDS011;70793;53.076;8.822;2023-10-31T07:24:05;0.30;;;0.30;;
81330;SDS011;70793;53.076;8.822;2023-10-31T07:26:33;0.30;;;0.30;;
81330;SDS011;70793;53.076;8.822;2023-10-31T07:28:59;0.40;;;0.38;;
81330;SDS011;70793;53.076;8.822;2023-10-31T07:31:25;0.60;;;0.60;;
81330;SDS011;70793;53.076;8.822;2023-10-31T07:33:50;0.98;;;0.60;;
81330;SDS011;70793;53.076;8.822;2023-10-31T07:36:15;0.52;;;0.52;;
81330;SDS011;70793;53.076;8.822;2023-10-31T07:38:41;0.50;;;0.50;;
81330;SDS011;70793;53.076;8.822;2023-10-31T07:41:06;0.28;;;0.28;;
81330;SDS011;70793;53.076;8.822;2023-10-31T07:43:32;0.90;;;0.40;;
81330;SDS011;70793;53.076;8.822;2023-10-31T07:45:57;0.50;;;0.27;;
81330;SDS011;70793;53.076;8.822;2023-10-31T07:48:22;0.43;;;0.43;;
81330;SDS011;70793;53.076;8.822;2023-10-31T07:50:48;0.70;;;0.70;;
81330;SDS011;70793;53.076;8.822;2023-10-31T07:53:13;0.40;;;0.40;;
81330;SDS011;70793;53.076;8.822;2023-10-31T07:55:39;0.60;;;0.60;;
81330;SDS011;70793;53.076;8.822;2023-10-31T07:58:04;0.50;;;0.50;;
81330;SDS011;70793;53.076;8.822;2023-10-31T08:00:30;1.10;;;0.87;;
81330;SDS011;70793;53.076;8.822;2023-10-31T08:02:56;0.60;;;0.60;;
81330;SDS011;70793;53.076;8.822;2023-10-31T08:05:21;0.65;;;0.30;;
81330;SDS011;70793;53.076;8.822;2023-10-31T08:07:47;0.73;;;0.20;;
81330;SDS011;70793;53.076;8.822;2023-10-31T08:10:12;0.75;;;0.40;;
81330;SDS011;70793;53.076;8.822;2023-10-31T08:12:38;0.40;;;0.40;;
81330;SDS011;70793;53.076;8.822;2023-10-31T08:15:03;0.35;;;0.35;;
81330;SDS011;70793;53.076;8.822;2023-10-31T08:17:29;0.30;;;0.30;;
81330;SDS011;70793;53.076;8.822;2023-10-31T08:19:54;0.40;;;0.40;;
81330;SDS011;70793;53.076;8.822;2023-10-31T08:22:20;0.30;;;0.30;;
81330;SDS011;70793;53.076;8.822;2023-10-31T08:24:45;0.30;;;0.30;;
81330;SDS011;70793;53.076;8.822;2023-10-31T08:27:11;0.50;;;0.50;;
81330;SDS011;70793;53.076;8.822;2023-10-31T08:29:37;0.60;;;0.60;;
81330;SDS011;70793;53.076;8.822;2023-10-31T08:32:03;0.47;;;0.47;;
81330;SDS011;70793;53.076;8.822;2023-10-31T08:34:29;0.40;;;0.40;;
81330;SDS011;70793;53.076;8.822;2023-10-31T08:36:54;0.50;;;0.50;;
81330;SDS011;70793;53.076;8.822;2023-10-31T08:39:21;0.30;;;0.30;;
81330;SDS011;70793;53.076;8.822;2023-10-31T08:41:53;0.63;;;0.40;;
81330;SDS011;70793;53.076;8.822;2023-10-31T08:44:20;0.30;;;0.30;;
81330;SDS011;70793;53.076;8.822;2023-10-31T08:46:45;0.28;;;0.28;;
81330;SDS011;70793;53.076;8.822;2023-10-31T08:49:11;0.30;;;0.30;;
81330;SDS011;70793;53.076;8.822;2023-10-31T08:51:37;0.40;;;0.40;;
81330;SDS011;70793;53.076;8.822;2023-10-31T08:54:03;0.87;;;0.87;;
81330;SDS011;70793;53.076;8.822;2023-10-31T08:56:28;0.50;;;0.50;;
81330;SDS011;70793;53.076;8.822;2023-10-31T08:58:54;0.20;;;0.20;;
81330;SDS011;70793;53.076;8.822;2023-10-31T09:01:19;0.57;;;0.57;;
81330;SDS011;70793;53.076;8.822;2023-10-31T09:03:45;0.20;;;0.20;;
81330;SDS011;70793;53.076;8.822;2023-10-31T09:06:10;0.20;;;0.20;;
81330;SDS011;70793;53.076;8.822;2023-10-31T09:08:36;0.60;;;0.40;;
81330;SDS011;70793;53.076;8.822;2023-10-31T09:11:03;0.43;;;0.30;;
81330;SDS011;70793;53.076;8.822;2023-10-31T09:13:30;0.30;;;0.30;;
81330;SDS011;70793;53.076;8.822;2023-10-31T09:15:57;0.30;;;0.30;;
81330;SDS011;70793;53.076;8.822;2023-10-31T09:18:25;0.20;;;0.20;;
81330;SDS011;70793;53.076;8.822;2023-10-31T09:20:51;0.70;;;0.70;;
81330;SDS011;70793;53.076;8.822;2023-10-31T09:23:17;0.30;;;0.30;;
81330;SDS011;70793;53.076;8.822;2023-10-31T09:25:43;0.17;;;0.17;;
81330;SDS011;70793;53.076;8.822;2023-10-31T09:28:09;0.22;;;0.22;;
81330;SDS011;70793;53.076;8.822;2023-10-31T09:30:34;0.20;;;0.20;;
81330;SDS011;70793;53.076;8.822;2023-10-31T09:33:00;0.32;;;0.32;;
81330;SDS011;70793;53.076;8.822;2023-10-31T09:35:26;0.20;;;0.20;;
81330;SDS011;70793;53.076;8.822;2023-10-31T09:37:52;0.30;;;0.30;;
81330;SDS011;70793;53.076;8.822;2023-10-31T09:40:17;0.30;;;0.30;;
81330;SDS011;70793;53.076;8.822;2023-10-31T09:42:46;0.35;;;0.35;;
81330;SDS011;70793;53.076;8.822;2023-10-31T09:45:13;0.30;;;0.30;;
81330;SDS011;70793;53.076;8.822;2023-10-31T09:47:39;0.40;;;0.40;;
81330;SDS011;70793;53.076;8.822;2023-10-31T09:50:05;0.40;;;0.40;;
81330;SDS011;70793;53.076;8.822;2023-10-31T09:52:33;0.40;;;0.40;;
81330;SDS011;70793;53.076;8.822;2023-10-31T09:54:59;0.40;;;0.40;;
81330;SDS011;70793;53.076;8.822;2023-10-31T09:57:24;1.58;;;0.50;;
81330;SDS011;70793;53.076;8.822;2023-10-31T09:59:51;0.30;;;0.20;;
81330;SDS011;70793;53.076;8.822;2023-10-31T10:02:17;0.80;;;0.80;;
81330;SDS011;70793;53.076;8.822;2023-10-31T10:04:42;0.50;;;0.50;;
81330;SDS011;70793;53.076;8.822;2023-10-31T10:07:08;0.60;;;0.50;;
81330;SDS011;70793;53.076;8.822;2023-10-31T10:09:33;0.32;;;0.32;;
81330;SDS011;70793;53.076;8.822;2023-10-31T10:11:59;0.40;;;0.40;;
81330;SDS011;70793;53.076;8.822;2023-10-31T10:14:26;0.30;;;0.30;;
81330;SDS011;70793;53.076;8.822;2023-10-31T10:16:56;0.50;;;0.50;;
81330;SDS011;70793;53.076;8.822;2023-10-31T10:19:22;0.70;;;0.70;;
81330;SDS011;70793;53.076;8.822;2023-10-31T10:24:18;0.70;;;0.40;;
81330;SDS011;70793;53.076;8.822;2023-10-31T10:26:44;0.70;;;0.50;;
81330;SDS011;70793;53.076;8.822;2023-10-31T10:29:10;0.50;;;0.50;;
81330;SDS011;70793;53.076;8.822;2023-10-31T10:31:35;0.60;;;0.60;;
81330;SDS011;70793;53.076;8.822;2023-10-31T10:34:01;0.50;;;0.50;;
81330;SDS011;70793;53.076;8.822;2023-10-31T10:36:26;0.13;;;0.13;;
81330;SDS011;70793;53.076;8.822;2023-10-31T10:38:53;0.40;;;0.40;;
81330;SDS011;70793;53.076;8.822;2023-10-31T10:41:22;0.43;;;0.38;;
81330;SDS011;70793;53.076;8.822;2023-10-31T10:43:50;0.40;;;0.40;;
81330;SDS011;70793;53.076;8.822;2023-10-31T10:46:21;0.40;;;0.40;;
81330;SDS011;70793;53.076;8.822;2023-10-31T10:48:50;0.30;;;0.30;;
81330;SDS011;70793;53.076;8.822;2023-10-31T10:51:45;0.52;;;0.52;;
81330;SDS011;70793;53.076;8.822;2023-10-31T10:54:15;0.82;;;0.70;;
81330;SDS011;70793;53.076;8.822;2023-10-31T10:59:42;0.40;;;0.40;;
81330;SDS011;70793;53.076;8.822;2023-10-31T11:02:08;0.30;;;0.30;;
81330;SDS011;70793;53.076;8.822;2023-10-31T11:04:35;0.57;;;0.50;;
81330;SDS011;70793;53.076;8.822;2023-10-31T11:07:01;0.35;;;0.35;;
81330;SDS011;70793;53.076;8.822;2023-10-31T11:09:28;0.30;;;0.30;;
81330;SDS011;70793;53.076;8.822;2023-10-31T11:11:55;0.20;;;0.20;;
81330;SDS011;70793;53.076;8.822;2023-10-31T11:14:21;0.32;;;0.32;;
81330;SDS011;70793;53.076;8.822;2023-10-31T11:16:50;0.20;;;0.20;;
81330;SDS011;70793;53.076;8.822;2023-10-31T11:19:17;0.40;;;0.40;;
81330;SDS011;70793;53.076;8.822;2023-10-31T11:21:52;0.32;;;0.32;;
81330;SDS011;70793;53.076;8.822;2023-10-31T11:24:20;0.40;;;0.40;;
81330;SDS011;70793;53.076;8.822;2023-10-31T11:26:50;0.82;;;0.35;;
81330;SDS011;70793;53.076;8.822;2023-10-31T11:29:17;0.20;;;0.20;;
81330;SDS011;70793;53.076;8.822;2023-10-31T11:31:42;0.30;;;0.30;;
81330;SDS011;70793;53.076;8.822;2023-10-31T11:34:08;0.30;;;0.30;;
81330;SDS011;70793;53.076;8.822;2023-10-31T11:36:35;0.50;;;0.50;;
81330;SDS011;70793;53.076;8.822;2023-10-31T11:39:17;0.30;;;0.30;;
81330;SDS011;70793;53.076;8.822;2023-10-31T11:41:49;0.80;;;0.77;;
81330;SDS011;70793;53.076;8.822;2023-10-31T11:44:17;0.40;;;0.40;;
81330;SDS011;70793;53.076;8.822;2023-10-31T11:46:43;0.40;;;0.40;;
81330;SDS011;70793;53.076;8.822;2023-10-31T11:49:12;0.65;;;0.65;;
81330;SDS011;70793;53.076;8.822;2023-10-31T11:51:38;0.45;;;0.40;;
81330;SDS011;70793;53.076;8.822;2023-10-31T11:54:06;0.43;;;0.43;;
81330;SDS011;70793;53.076;8.822;2023-10-31T11:56:33;0.52;;;0.50;;
81330;SDS011;70793;53.076;8.822;2023-10-31T11:59:00;0.40;;;0.40;;
81330;SDS011;70793;53.076;8.822;2023-10-31T12:01:26;0.70;;;0.60;;
81330;SDS011;70793;53.076;8.822;2023-10-31T12:03:52;0.60;;;0.60;;
81330;SDS011;70793;53.076;8.822;2023-10-31T12:06:18;0.50;;;0.50;;
81330;SDS011;70793;53.076;8.822;2023-10-31T12:08:45;0.85;;;0.85;;
81330;SDS011;70793;53.076;8.822;2023-10-31T12:11:13;0.30;;;0.30;;
81330;SDS011;70793;53.076;8.822;2023-10-31T12:13:55;0.60;;;0.60;;
81330;SDS011;70793;53.076;8.822;2023-10-31T12:16:24;0.30;;;0.30;;
81330;SDS011;70793;53.076;8.822;2023-10-31T12:19:01;0.50;;;0.50;;
81330;SDS011;70793;53.076;8.822;2023-10-31T12:21:44;0.40;;;0.40;;
81330;SDS011;70793;53.076;8.822;2023-10-31T12:24:14;0.68;;;0.50;;
81330;SDS011;70793;53.076;8.822;2023-10-31T12:26:44;0.55;;;0.55;;
81330;SDS011;70793;53.076;8.822;2023-10-31T12:29:14;0.40;;;0.40;;
81330;SDS011;70793;53.076;8.822;2023-10-31T12:31:45;0.40;;;0.40;;
81330;SDS011;70793;53.076;8.822;2023-10-31T12:34:18;0.40;;;0.40;;
81330;SDS011;70793;53.076;8.822;2023-10-31T12:36:47;0.20;;;0.20;;
81330;SDS011;70793;53.076;8.822;2023-10-31T12:39:13;0.40;;;0.40;;
81330;SDS011;70793;53.076;8.822;2023-10-31T12:41:41;0.40;;;0.40;;
81330;SDS011;70793;53.076;8.822;2023-10-31T12:44:07;0.32;;;0.32;;
81330;SDS011;70793;53.076;8.822;2023-10-31T12:46:38;0.60;;;0.60;;
81330;SDS011;70793;53.076;8.822;2023-10-31T12:49:27;1.02;;;0.30;;
81330;SDS011;70793;53.076;8.822;2023-10-31T12:54:29;0.40;;;0.40;;
81330;SDS011;70793;53.076;8.822;2023-10-31T12:57:01;0.30;;;0.30;;
81330;SDS011;70793;53.076;8.822;2023-10-31T12:59:29;0.30;;;0.30;;
81330;SDS011;70793;53.076;8.822;2023-10-31T13:01:55;0.40;;;0.40;;
81330;SDS011;70793;53.076;8.822;2023-10-31T13:04:27;0.35;;;0.28;;
81330;SDS011;70793;53.076;8.822;2023-10-31T13:06:57;0.20;;;0.20;;
81330;SDS011;70793;53.076;8.822;2023-10-31T13:09:36;0.47;;;0.30;;
81330;SDS011;70793;53.076;8.822;2023-10-31T13:12:04;0.43;;;0.43;;
81330;SDS011;70793;53.076;8.822;2023-10-31T13:14:31;0.55;;;0.55;;
81330;SDS011;70793;53.076;8.822;2023-10-31T13:16:57;0.50;;;0.38;;
81330;SDS011;70793;53.076;8.822;2023-10-31T13:19:23;0.38;;;0.35;;
81330;SDS011;70793;53.076;8.822;2023-10-31T13:21:49;0.50;;;0.50;;
81330;SDS011;70793;53.076;8.822;2023-10-31T13:24:15;0.30;;;0.30;;
81330;SDS011;70793;53.076;8.822;2023-10-31T13:26:40;0.60;;;0.60;;
81330;SDS011;70793;53.076;8.822;2023-10-31T13:29:09;0.40;;;0.40;;
81330;SDS011;70793;53.076;8.822;2023-10-31T13:31:34;0.35;;;0.35;;
81330;SDS011;70793;53.076;8.822;2023-10-31T13:34:00;0.35;;;0.35;;
81330;SDS011;70793;53.076;8.822;2023-10-31T13:36:26;0.65;;;0.65;;
81330;SDS011;70793;53.076;8.822;2023-10-31T13:38:51;0.40;;;0.40;;
81330;SDS011;70793;53.076;8.822;2023-10-31T13:41:17;0.30;;;0.30;;
81330;SDS011;70793;53.076;8.822;2023-10-31T13:43:42;0.40;;;0.40;;
81330;SDS011;70793;53.076;8.822;2023-10-31T13:46:08;0.40;;;0.40;;
81330;SDS011;70793;53.076;8.822;2023-10-31T13:48:34;0.40;;;0.40;;
81330;SDS011;70793;53.076;8.822;2023-10-31T13:50:59;0.47;;;0.47;;
81330;SDS011;70793;53.076;8.822;2023-10-31T13:53:25;0.30;;;0.30;;
81330;SDS011;70793;53.076;8.822;2023-10-31T13:55:50;0.40;;;0.40;;
81330;SDS011;70793;53.076;8.822;2023-10-31T13:58:16;0.55;;;0.55;;
81330;SDS011;70793;53.076;8.822;2023-10-31T14:00:43;0.60;;;0.60;;
81330;SDS011;70793;53.076;8.822;2023-10-31T14:03:11;2.05;;;0.60;;
81330;SDS011;70793;53.076;8.822;2023-10-31T14:05:37;0.32;;;0.22;;
81330;SDS011;70793;53.076;8.822;2023-10-31T14:08:03;0.47;;;0.38;;
81330;SDS011;70793;53.076;8.822;2023-10-31T14:10:30;0.90;;;0.73;;
81330;SDS011;70793;53.076;8.822;2023-10-31T14:12:56;0.30;;;0.30;;
81330;SDS011;70793;53.076;8.822;2023-10-31T14:15:21;0.57;;;0.57;;
81330;SDS011;70793;53.076;8.822;2023-10-31T14:17:47;0.40;;;0.40;;
81330;SDS011;70793;53.076;8.822;2023-10-31T14:20:14;0.40;;;0.40;;
81330;SDS011;70793;53.076;8.822;2023-10-31T14:22:39;0.60;;;0.60;;
81330;SDS011;70793;53.076;8.822;2023-10-31T14:25:05;0.40;;;0.40;;
81330;SDS011;70793;53.076;8.822;2023-10-31T14:27:32;0.55;;;0.45;;
81330;SDS011;70793;53.076;8.822;2023-10-31T14:30:08;0.22;;;0.22;;
81330;SDS011;70793;53.076;8.822;2023-10-31T14:32:38;0.32;;;0.32;;
81330;SDS011;70793;53.076;8.822;2023-10-31T14:35:04;0.30;;;0.30;;
81330;SDS011;70793;53.076;8.822;2023-10-31T14:37:31;0.65;;;0.65;;
81330;SDS011;70793;53.076;8.822;2023-10-31T14:39:57;0.40;;;0.40;;
81330;SDS011;70793;53.076;8.822;2023-10-31T14:42:22;0.52;;;0.52;;
81330;SDS011;70793;53.076;8.822;2023-10-31T14:44:51;1.27;;;0.50;;
81330;SDS011;70793;53.076;8.822;2023-10-31T14:47:17;0.20;;;0.20;;
81330;SDS011;70793;53.076;8.822;2023-10-31T14:49:44;0.25;;;0.25;;
81330;SDS011;70793;53.076;8.822;2023-10-31T14:52:09;1.02;;;0.50;;